Time;durP1;ratioP1;P1;durP2;ratioP2;P2;SDS_P1;SDS_P2;PMS_P1;PMS_P2;Temp;Humidity;BMP_temperature;BMP_pressure;BME280_temperature;BME280_humidity;BME280_pressure;Samples;Min_cycle;Max_cycle;Signal;HPM_P1;HPM_P2
2022/01/17 05:10:29;;;;;;;1.90;1.80;;;0.60;99.90;;;;;;4994397;28;20277;-68
2022/01/17 05:12:56;;;;;;;1.90;1.80;;;0.60;99.90;;;;;;4996322;28;20202;-68
2022/01/17 05:15:30;;;;;;;1.60;1.60;;;0.60;99.90;;;;;;4996243;28;20261;-68
2022/01/17 05:18:12;;;;;;;1.92;1.83;;;0.60;99.90;;;;;;4996105;28;20234;-68
2022/01/17 05:20:40;;;;;;;1.40;1.40;;;0.60;99.90;;;;;;4994949;28;20630;-68
2022/01/17 05:23:08;;;;;;;1.58;1.48;;;0.60;99.90;;;;;;4996247;28;20209;-68
2022/01/17 05:25:37;;;;;;;1.50;1.40;;;0.60;99.90;;;;;;4996197;28;20209;-67
2022/01/17 05:28:04;;;;;;;1.75;1.75;;;0.70;99.90;;;;;;4996074;28;20225;-67
2022/01/17 05:30:31;;;;;;;1.45;1.45;;;0.70;99.90;;;;;;4996636;28;20209;-67
2022/01/17 05:32:59;;;;;;;1.60;1.60;;;0.70;99.90;;;;;;4995707;28;20693;-67
2022/01/17 05:35:26;;;;;;;1.50;1.50;;;0.70;99.90;;;;;;4995726;28;20608;-67
2022/01/17 05:37:53;;;;;;;1.55;1.55;;;0.70;99.90;;;;;;4995880;28;20340;-66
2022/01/17 05:40:20;;;;;;;1.65;1.65;;;0.70;99.90;;;;;;4996197;28;20641;-68
2022/01/17 05:42:48;;;;;;;1.40;1.40;;;0.80;99.90;;;;;;4995903;28;20293;-70
2022/01/17 05:45:16;;;;;;;1.45;1.45;;;0.80;99.90;;;;;;4995826;28;20207;-74
2022/01/17 05:47:43;;;;;;;1.52;1.52;;;0.80;99.90;;;;;;4995794;28;20202;-74
2022/01/17 05:50:10;;;;;;;1.88;1.77;;;0.80;99.90;;;;;;4995859;28;20565;-74
2022/01/17 05:52:38;;;;;;;1.67;1.63;;;0.90;99.90;;;;;;4995764;28;20293;-74
2022/01/17 05:55:07;;;;;;;2.00;1.90;;;0.90;99.90;;;;;;4995358;28;20639;-74
2022/01/17 05:57:34;;;;;;;1.70;1.67;;;0.90;99.90;;;;;;4995600;28;20229;-71
2022/01/17 06:00:04;;;;;;;2.10;2.00;;;1.00;99.90;;;;;;4995319;28;20661;-72
2022/01/17 06:02:31;;;;;;;1.85;1.75;;;1.00;99.90;;;;;;4995614;28;20230;-71
2022/01/17 06:04:58;;;;;;;2.05;1.98;;;1.00;99.90;;;;;;4995649;28;20610;-71
2022/01/17 06:07:24;;;;;;;2.28;2.10;;;1.00;99.90;;;;;;4995548;28;20237;-71
2022/01/17 11:22:35;;;;;;;0.70;0.70;;;5.70;99.90;;;;;;5515711;22;20582;-69
2022/01/17 11:25:04;;;;;;;0.80;0.80;;;5.70;99.90;;;;;;5073723;28;20180;-68
2022/01/17 11:27:32;;;;;;;0.50;0.50;;;5.70;99.90;;;;;;5073586;28;20282;-68
2022/01/17 11:29:59;;;;;;;0.68;0.68;;;5.70;99.90;;;;;;5073620;28;20204;-68
2022/01/17 11:32:26;;;;;;;0.70;0.70;;;5.70;99.90;;;;;;5073490;28;20247;-68
2022/01/17 11:34:55;;;;;;;0.82;0.70;;;5.80;99.90;;;;;;5073372;28;20206;-68
2022/01/17 11:37:22;;;;;;;0.75;0.75;;;5.90;99.90;;;;;;5073292;28;20290;-69
2022/01/17 11:39:52;;;;;;;0.70;0.70;;;6.00;99.90;;;;;;5073530;28;20257;-69
2022/01/17 11:42:33;;;;;;;0.93;0.93;;;6.00;99.90;;;;;;5073237;28;20270;-68
2022/01/17 11:45:01;;;;;;;0.82;0.82;;;6.10;99.90;;;;;;5073195;28;20203;-68
2022/01/17 11:47:48;;;;;;;0.80;0.80;;;6.10;99.90;;;;;;5073848;28;20290;-69
2022/01/17 11:50:36;;;;;;;0.65;0.65;;;6.10;99.90;;;;;;5073103;28;20204;-69
2022/01/17 11:53:40;;;;;;;0.80;0.80;;;6.10;99.90;;;;;;5073326;28;20274;-69
2022/01/17 11:56:09;;;;;;;1.00;0.98;;;6.10;99.90;;;;;;5073392;28;20198;-70
2022/01/17 11:58:42;;;;;;;0.70;0.70;;;6.00;99.90;;;;;;5073063;28;20756;-70
2022/01/17 12:01:15;;;;;;;0.60;0.60;;;5.90;99.90;;;;;;5073271;28;20190;-70
2022/01/17 12:03:45;;;;;;;0.85;0.85;;;5.90;99.90;;;;;;5073354;28;20194;-70
2022/01/17 12:06:27;;;;;;;0.70;0.70;;;5.80;99.90;;;;;;5073264;28;20620;-70
2022/01/17 12:09:23;;;;;;;0.75;0.75;;;5.80;99.90;;;;;;5073390;28;20187;-70
2022/01/17 12:12:12;;;;;;;0.70;0.70;;;5.70;99.90;;;;;;5072815;28;20641;-70
2022/01/17 12:14:44;;;;;;;0.60;0.60;;;5.60;99.90;;;;;;5075436;28;20188;-70
2022/01/17 12:17:28;;;;;;;0.50;0.50;;;5.60;99.90;;;;;;5076239;28;20591;-69
2022/01/17 12:20:22;;;;;;;0.60;0.60;;;5.60;99.90;;;;;;5076863;28;20200;-70
2022/01/17 12:22:58;;;;;;;0.70;0.70;;;5.50;99.90;;;;;;5075103;28;20755;-72
2022/01/17 12:25:34;;;;;;;0.60;0.60;;;5.50;99.90;;;;;;5077887;28;20188;-72
2022/01/17 12:28:30;;;;;;;0.80;0.80;;;5.40;99.90;;;;;;5077150;28;20180;-70
2022/01/17 12:30:58;;;;;;;0.70;0.70;;;5.40;99.90;;;;;;5033882;28;20210;-71
2022/01/17 12:33:37;;;;;;;0.60;0.60;;;5.40;99.90;;;;;;5079461;28;20327;-71
2022/01/17 12:36:07;;;;;;;0.60;0.60;;;5.40;99.90;;;;;;5076728;28;20183;-72
2022/01/17 12:38:37;;;;;;;0.68;0.68;;;5.40;99.90;;;;;;5076463;28;20230;-71
2022/01/17 12:41:04;;;;;;;0.60;0.60;;;5.40;99.90;;;;;;5076573;28;20326;-72
2022/01/17 12:43:35;;;;;;;0.90;0.90;;;5.40;99.90;;;;;;5076512;28;20287;-72
2022/01/17 12:46:05;;;;;;;0.70;0.70;;;5.40;99.90;;;;;;5076316;28;20181;-71
2022/01/17 12:48:33;;;;;;;0.93;0.93;;;5.40;99.90;;;;;;5076813;28;20200;-72
2022/01/17 12:51:03;;;;;;;0.75;0.75;;;5.40;99.90;;;;;;5076524;28;20200;-72
2022/01/17 12:53:30;;;;;;;0.90;0.90;;;5.30;99.90;;;;;;5076258;28;20184;-71
2022/01/17 12:56:00;;;;;;;1.30;1.30;;;5.30;99.90;;;;;;5076373;28;20203;-71
2022/01/17 12:58:29;;;;;;;1.13;1.13;;;5.20;99.90;;;;;;5076191;28;20310;-72
2022/01/17 13:01:03;;;;;;;1.50;1.40;;;5.10;99.90;;;;;;5077207;28;20290;-72
2022/01/17 13:03:33;;;;;;;0.95;0.95;;;4.90;99.90;;;;;;5076715;28;20304;-70
2022/01/17 13:06:01;;;;;;;1.05;1.05;;;4.80;99.90;;;;;;5075805;28;20624;-67
2022/01/17 13:08:28;;;;;;;0.90;0.90;;;4.60;99.90;;;;;;5076235;28;20203;-67
2022/01/17 13:10:56;;;;;;;0.90;0.90;;;4.60;99.90;;;;;;5075685;28;20660;-67
2022/01/17 13:13:23;;;;;;;0.70;0.70;;;4.50;99.90;;;;;;5075544;28;20220;-67
2022/01/17 13:16:00;;;;;;;0.70;0.70;;;4.50;99.90;;;;;;5075783;28;20730;-68
2022/01/17 13:18:29;;;;;;;1.10;1.10;;;4.50;99.90;;;;;;5075998;28;20214;-67
2022/01/17 13:20:57;;;;;;;0.88;0.88;;;4.50;99.90;;;;;;5075787;28;20210;-68
2022/01/17 13:23:31;;;;;;;0.77;0.77;;;4.50;99.90;;;;;;5075423;28;20266;-69
2022/01/17 13:25:59;;;;;;;0.80;0.80;;;4.50;99.90;;;;;;5075805;28;20190;-68
2022/01/17 13:28:26;;;;;;;0.70;0.70;;;4.60;99.90;;;;;;5075483;28;20654;-68
2022/01/17 13:30:53;;;;;;;0.60;0.60;;;4.60;99.90;;;;;;5075739;28;20242;-68
2022/01/17 13:33:21;;;;;;;0.80;0.80;;;4.60;99.90;;;;;;5075610;28;20231;-68
2022/01/17 13:35:54;;;;;;;0.70;0.70;;;4.70;99.90;;;;;;5075252;28;20204;-68
2022/01/17 13:38:22;;;;;;;0.60;0.60;;;4.60;99.90;;;;;;5075545;28;20208;-68
2022/01/17 13:40:51;;;;;;;0.65;0.65;;;4.60;99.90;;;;;;5074660;28;20203;-68
2022/01/17 13:43:18;;;;;;;0.73;0.73;;;4.60;99.90;;;;;;5075308;28;20227;-68
2022/01/17 13:45:47;;;;;;;0.70;0.70;;;4.60;99.90;;;;;;5075486;28;20181;-68
2022/01/17 13:48:16;;;;;;;0.60;0.60;;;4.70;99.90;;;;;;5075508;28;20281;-68
2022/01/17 13:50:47;;;;;;;0.80;0.80;;;4.70;99.90;;;;;;5075508;28;20207;-68
2022/01/17 13:53:17;;;;;;;0.77;0.77;;;4.80;99.90;;;;;;5077027;28;20251;-68
2022/01/17 13:55:45;;;;;;;0.50;0.50;;;4.80;99.90;;;;;;5076836;28;20650;-68
2022/01/17 13:58:14;;;;;;;0.70;0.70;;;4.80;99.90;;;;;;5075895;28;20306;-68
2022/01/17 14:00:46;;;;;;;0.60;0.60;;;4.90;99.90;;;;;;5074797;28;20558;-68
2022/01/17 14:03:15;;;;;;;0.68;0.68;;;4.80;99.90;;;;;;5074612;28;20235;-68
2022/01/17 14:05:43;;;;;;;0.65;0.65;;;4.80;99.90;;;;;;5075204;28;20200;-69
2022/01/17 14:08:15;;;;;;;0.60;0.60;;;4.80;99.90;;;;;;5075010;28;20207;-69
2022/01/17 14:10:59;;;;;;;0.60;0.60;;;4.80;99.90;;;;;;5079676;28;20189;-69
2022/01/17 14:13:33;;;;;;;0.80;0.80;;;4.80;99.90;;;;;;5078180;28;20748;-69
2022/01/17 14:16:22;;;;;;;0.70;0.70;;;4.80;99.90;;;;;;5078626;28;20199;-69
2022/01/17 14:18:51;;;;;;;0.90;0.90;;;4.80;99.90;;;;;;5078092;28;20204;-68
2022/01/17 14:21:31;;;;;;;0.82;0.82;;;4.80;99.90;;;;;;5077944;28;20295;-69
2022/01/17 14:24:08;;;;;;;1.05;1.02;;;4.80;99.90;;;;;;5078319;28;20219;-68
2022/01/17 14:26:37;;;;;;;0.90;0.90;;;4.70;99.90;;;;;;5078360;28;20180;-71
2022/01/17 14:29:09;;;;;;;0.73;0.73;;;4.70;99.90;;;;;;5078280;28;20226;-71
2022/01/17 14:31:37;;;;;;;0.88;0.88;;;4.70;99.90;;;;;;5079275;28;20220;-69
2022/01/17 14:34:17;;;;;;;0.90;0.90;;;4.70;99.90;;;;;;5078040;28;20196;-69
2022/01/17 14:36:57;;;;;;;0.90;0.90;;;4.60;99.90;;;;;;5078558;28;20195;-70
2022/01/17 14:39:34;;;;;;;0.80;0.80;;;4.60;99.90;;;;;;5076796;28;20208;-69
2022/01/17 14:42:07;;;;;;;0.73;0.73;;;4.60;99.90;;;;;;5079018;28;20269;-69
2022/01/17 14:44:36;;;;;;;1.00;1.00;;;4.60;99.90;;;;;;5078326;28;20188;-70
2022/01/17 14:47:08;;;;;;;0.75;0.75;;;4.60;99.90;;;;;;5078347;28;20287;-69
2022/01/17 14:49:39;;;;;;;0.80;0.80;;;4.60;99.90;;;;;;5077038;28;20180;-69
2022/01/17 14:52:16;;;;;;;0.70;0.70;;;4.60;99.90;;;;;;5075805;28;20215;-69
2022/01/17 15:00:27;;;;;;;1.00;1.00;;;4.50;99.90;;;;;;5073976;28;20341;-69
2022/01/17 15:02:59;;;;;;;0.80;0.80;;;4.40;99.90;;;;;;5073990;28;20557;-69
2022/01/17 15:05:27;;;;;;;1.00;0.90;;;4.40;99.90;;;;;;5074023;28;20207;-69
2022/01/17 15:07:55;;;;;;;0.75;0.75;;;4.40;99.90;;;;;;5073990;28;20257;-68
2022/01/17 15:10:25;;;;;;;1.27;1.20;;;4.30;99.90;;;;;;5073816;28;20279;-68
2022/01/17 15:12:52;;;;;;;1.48;1.48;;;4.30;99.90;;;;;;5073443;28;20702;-68
2022/01/17 15:15:20;;;;;;;2.05;1.45;;;4.20;99.90;;;;;;5073714;28;20210;-68
2022/01/17 15:17:54;;;;;;;1.55;1.45;;;4.20;99.90;;;;;;5073626;28;20204;-69
2022/01/17 15:20:21;;;;;;;1.80;1.70;;;4.00;99.90;;;;;;5073286;28;20550;-70
2022/01/17 15:22:48;;;;;;;1.40;1.30;;;4.00;99.90;;;;;;5073166;28;20585;-69
2022/01/17 15:25:15;;;;;;;1.60;1.55;;;3.90;99.90;;;;;;5073718;28;20275;-70
2022/01/17 15:27:44;;;;;;;1.75;1.65;;;3.80;99.90;;;;;;5073221;28;20618;-70
2022/01/17 15:30:14;;;;;;;1.80;1.70;;;3.80;99.90;;;;;;5073578;28;20290;-69
2022/01/17 15:32:41;;;;;;;2.28;2.08;;;3.80;99.90;;;;;;5073199;28;20598;-69
2022/01/17 15:35:10;;;;;;;1.80;1.80;;;3.70;99.90;;;;;;5073532;28;20207;-69
2022/01/17 15:37:37;;;;;;;1.38;1.38;;;3.70;99.90;;;;;;5073612;28;20208;-69
2022/01/17 15:40:05;;;;;;;1.45;1.45;;;3.70;99.90;;;;;;5073520;28;20224;-69
2022/01/17 15:42:32;;;;;;;1.42;1.33;;;3.60;99.90;;;;;;5073443;28;20230;-69
2022/01/17 15:45:00;;;;;;;2.50;2.03;;;3.60;99.90;;;;;;5073714;28;20206;-70
2022/01/17 15:47:27;;;;;;;2.05;1.95;;;3.60;99.90;;;;;;5073160;28;20290;-69
2022/01/17 15:49:54;;;;;;;2.08;1.90;;;3.50;99.90;;;;;;5076794;28;20230;-69
2022/01/17 15:52:22;;;;;;;1.92;1.80;;;3.50;99.90;;;;;;5077262;28;20231;-69
2022/01/17 15:54:50;;;;;;;2.15;2.00;;;3.50;99.90;;;;;;5076803;28;20202;-69
2022/01/17 15:57:17;;;;;;;1.52;1.42;;;3.50;99.90;;;;;;5077085;28;20211;-69
2022/01/17 15:59:46;;;;;;;1.95;1.85;;;3.50;99.90;;;;;;5076993;28;20305;-71
2022/01/17 16:02:15;;;;;;;1.67;1.58;;;3.40;99.90;;;;;;5076126;28;20227;-71
2022/01/17 16:04:45;;;;;;;1.13;1.13;;;3.40;99.90;;;;;;5077448;28;20667;-70
2022/01/17 16:07:13;;;;;;;1.20;1.20;;;3.40;99.90;;;;;;5081014;28;20181;-71
2022/01/17 16:09:40;;;;;;;1.45;1.40;;;3.30;99.90;;;;;;5078215;28;20199;-70
2022/01/17 16:12:07;;;;;;;1.65;1.55;;;3.30;99.90;;;;;;5077036;28;20310;-70
2022/01/17 16:14:34;;;;;;;1.52;1.42;;;3.30;99.90;;;;;;5076734;28;20204;-70
2022/01/17 16:17:02;;;;;;;1.92;1.83;;;3.20;99.90;;;;;;5076990;28;20261;-70
2022/01/17 16:19:30;;;;;;;1.83;1.73;;;3.20;99.90;;;;;;5076906;28;20231;-71
2022/01/17 16:21:57;;;;;;;2.47;2.28;;;3.20;99.90;;;;;;5076835;28;20222;-70
2022/01/17 16:24:24;;;;;;;2.05;1.95;;;3.20;99.90;;;;;;5076746;28;20218;-70
2022/01/17 16:26:51;;;;;;;2.35;2.22;;;3.20;99.90;;;;;;5076691;28;20614;-70
2022/01/17 16:29:18;;;;;;;2.15;2.05;;;3.20;99.90;;;;;;5077727;28;20300;-70
2022/01/17 16:31:44;;;;;;;1.90;1.80;;;3.20;99.90;;;;;;5077192;28;20251;-69
2022/01/17 16:34:11;;;;;;;2.20;2.10;;;3.10;99.90;;;;;;5077234;28;20229;-69
2022/01/17 16:36:39;;;;;;;2.60;2.40;;;3.10;99.90;;;;;;5076997;28;20739;-69
2022/01/17 16:39:06;;;;;;;2.58;2.25;;;3.10;99.90;;;;;;5076425;28;20750;-69
2022/01/17 16:41:33;;;;;;;2.42;2.22;;;3.10;99.90;;;;;;5076838;28;20565;-70
2022/01/17 16:44:00;;;;;;;2.83;2.58;;;3.10;99.90;;;;;;5076718;28;20206;-70
2022/01/17 16:46:27;;;;;;;2.50;2.30;;;3.00;99.90;;;;;;5076821;28;20307;-70
2022/01/17 16:48:54;;;;;;;3.65;2.90;;;3.00;99.90;;;;;;5076729;28;20200;-70
2022/01/17 16:51:22;;;;;;;2.65;2.33;;;2.90;99.90;;;;;;5076512;28;20206;-70
2022/01/17 16:53:50;;;;;;;3.08;2.70;;;2.80;99.90;;;;;;5076433;28;20202;-70
2022/01/17 16:56:18;;;;;;;2.30;2.20;;;2.80;99.90;;;;;;5076453;28;20199;-70
2022/01/17 16:58:45;;;;;;;2.20;2.00;;;2.80;99.90;;;;;;5076041;28;20559;-70
2022/01/17 17:01:12;;;;;;;2.53;2.40;;;2.80;99.90;;;;;;5076017;28;20591;-71
2022/01/17 17:03:41;;;;;;;2.10;2.00;;;2.80;99.90;;;;;;5076390;28;20279;-71
2022/01/17 17:06:08;;;;;;;2.25;1.98;;;2.80;99.90;;;;;;5076842;28;20243;-71
2022/01/17 17:08:35;;;;;;;2.17;2.08;;;2.80;99.90;;;;;;5076068;28;20207;-71
2022/01/17 17:11:04;;;;;;;1.75;1.65;;;2.70;99.90;;;;;;5075717;28;20291;-71
2022/01/17 17:13:31;;;;;;;1.83;1.83;;;2.70;99.90;;;;;;5075555;28;20259;-71
2022/01/17 17:15:58;;;;;;;1.90;1.80;;;2.60;99.90;;;;;;5076137;28;20575;-69
2022/01/17 17:18:26;;;;;;;1.40;1.40;;;2.70;99.90;;;;;;5076387;28;20648;-70
2022/01/17 17:20:53;;;;;;;1.58;1.50;;;2.60;99.90;;;;;;5075407;28;20220;-70
2022/01/17 17:23:20;;;;;;;1.30;1.30;;;2.70;99.90;;;;;;5075346;28;20294;-69
2022/01/17 17:25:47;;;;;;;1.52;1.50;;;2.70;99.90;;;;;;5075367;28;20562;-69
2022/01/17 17:28:15;;;;;;;1.67;1.58;;;2.70;99.90;;;;;;5075444;28;20204;-70
2022/01/17 17:30:42;;;;;;;1.20;1.20;;;2.70;99.90;;;;;;5075076;28;20566;-69
2022/01/17 17:33:09;;;;;;;1.40;1.40;;;2.70;99.90;;;;;;5075043;28;20597;-69
2022/01/17 17:35:37;;;;;;;1.30;1.30;;;2.80;99.90;;;;;;5075317;28;20202;-69
2022/01/17 17:38:04;;;;;;;1.30;1.30;;;2.80;99.90;;;;;;5075201;28;20196;-69
2022/01/17 17:40:32;;;;;;;1.55;1.50;;;2.80;99.90;;;;;;5075161;28;20208;-68
2022/01/17 17:42:59;;;;;;;1.13;1.13;;;2.70;99.90;;;;;;5075007;28;20315;-70
2022/01/17 17:45:27;;;;;;;1.20;1.20;;;2.80;99.90;;;;;;5074786;28;20195;-70
2022/01/17 17:47:54;;;;;;;1.35;1.25;;;2.80;99.90;;;;;;5074960;28;20294;-71
2022/01/17 17:50:22;;;;;;;1.30;1.30;;;2.70;99.90;;;;;;5074450;28;20653;-71
2022/01/17 17:52:50;;;;;;;1.60;1.60;;;2.70;99.90;;;;;;5074751;28;20220;-71
2022/01/17 17:55:17;;;;;;;2.10;1.92;;;2.70;99.90;;;;;;5074732;28;20200;-71
2022/01/17 17:57:46;;;;;;;1.73;1.60;;;2.70;99.90;;;;;;5077052;28;20235;-71
2022/01/17 18:00:15;;;;;;;1.70;1.60;;;2.70;99.90;;;;;;5075671;28;20220;-71
2022/01/17 18:02:43;;;;;;;1.60;1.60;;;2.70;99.90;;;;;;5074898;28;20259;-71
2022/01/17 18:05:12;;;;;;;1.63;1.52;;;2.70;99.90;;;;;;5074640;28;20228;-71
2022/01/17 18:07:39;;;;;;;1.40;1.40;;;2.60;99.90;;;;;;5074400;28;20210;-71
2022/01/17 18:10:06;;;;;;;1.63;1.63;;;2.70;99.90;;;;;;5074538;28;20200;-70
2022/01/17 18:12:34;;;;;;;1.60;1.60;;;2.70;99.90;;;;;;5074422;28;20216;-70
2022/01/17 18:15:01;;;;;;;1.45;1.45;;;2.70;99.90;;;;;;5074488;28;20249;-69
2022/01/17 18:17:28;;;;;;;1.30;1.30;;;2.60;99.90;;;;;;5074510;28;20287;-71
2022/01/17 18:19:56;;;;;;;1.55;1.55;;;2.60;99.90;;;;;;5074351;28;20220;-71
2022/01/17 18:22:25;;;;;;;1.30;1.30;;;2.60;99.90;;;;;;5073942;28;20729;-71
2022/01/17 18:24:52;;;;;;;1.30;1.30;;;2.60;99.90;;;;;;5075117;28;20199;-69
2022/01/17 18:27:19;;;;;;;1.33;1.33;;;2.60;99.90;;;;;;5073456;28;20666;-68
2022/01/17 18:29:47;;;;;;;1.20;1.20;;;2.60;99.90;;;;;;5074146;28;20299;-70
2022/01/17 18:32:14;;;;;;;1.13;1.13;;;2.50;99.90;;;;;;5074126;28;20224;-69
2022/01/17 18:34:41;;;;;;;1.25;1.25;;;2.50;99.90;;;;;;5074079;28;20200;-69
2022/01/17 18:37:09;;;;;;;1.33;1.33;;;2.50;99.90;;;;;;5074053;28;20227;-69
2022/01/17 18:39:36;;;;;;;1.60;1.60;;;2.50;99.90;;;;;;5073615;28;20286;-70
2022/01/17 18:42:04;;;;;;;1.48;1.48;;;2.50;99.90;;;;;;5073545;28;20227;-70
2022/01/17 18:44:31;;;;;;;1.90;1.80;;;2.50;99.90;;;;;;5073836;28;20204;-70
2022/01/17 18:46:58;;;;;;;2.33;2.13;;;2.50;99.90;;;;;;5073814;28;20200;-70
2022/01/17 18:49:25;;;;;;;2.10;2.00;;;2.50;99.90;;;;;;5073846;28;20290;-70
2022/01/17 18:51:53;;;;;;;1.77;1.67;;;2.50;99.90;;;;;;5073330;28;20559;-71
2022/01/17 18:54:22;;;;;;;1.55;1.55;;;2.50;99.90;;;;;;5073718;28;20204;-71
2022/01/17 18:56:49;;;;;;;1.50;1.40;;;2.50;99.90;;;;;;5073570;28;20206;-70
2022/01/17 18:59:16;;;;;;;1.80;1.70;;;2.50;99.90;;;;;;5073701;28;20211;-70
2022/01/17 19:01:44;;;;;;;1.70;1.60;;;2.60;99.90;;;;;;5073202;28;20759;-70
2022/01/17 19:04:11;;;;;;;1.58;1.58;;;2.60;99.90;;;;;;5073712;28;20574;-69
2022/01/17 19:06:38;;;;;;;1.40;1.40;;;2.60;99.90;;;;;;5073705;28;20246;-69
2022/01/17 19:09:05;;;;;;;1.45;1.45;;;2.60;99.90;;;;;;5073447;28;20235;-69
2022/01/17 19:11:34;;;;;;;1.70;1.60;;;2.60;99.90;;;;;;5073353;28;20226;-69
2022/01/17 19:14:01;;;;;;;1.50;1.50;;;2.60;99.90;;;;;;5073450;28;20247;-70
2022/01/17 19:16:28;;;;;;;1.40;1.40;;;2.60;99.90;;;;;;5073417;28;20196;-70
2022/01/17 19:21:45;;;;;;;1.40;1.40;;;2.60;99.90;;;;;;5073154;28;20586;-69
2022/01/17 19:24:14;;;;;;;1.52;1.52;;;2.70;99.90;;;;;;5073140;28;20211;-69
2022/01/17 19:26:44;;;;;;;1.20;1.20;;;2.70;99.90;;;;;;5073161;28;20196;-69
2022/01/17 19:29:12;;;;;;;1.80;1.70;;;2.70;99.90;;;;;;5073037;28;20230;-70
2022/01/17 19:31:40;;;;;;;1.38;1.38;;;2.60;99.90;;;;;;5073391;28;20303;-70
2022/01/17 19:34:07;;;;;;;1.40;1.40;;;2.70;99.90;;;;;;5073557;28;20210;-70
2022/01/17 19:36:34;;;;;;;1.60;1.60;;;2.70;99.90;;;;;;5073439;28;20210;-70
2022/01/17 19:39:01;;;;;;;1.70;1.70;;;2.70;99.90;;;;;;5072217;28;20681;-70
2022/01/17 19:41:28;;;;;;;1.48;1.48;;;2.60;99.90;;;;;;5073302;28;20235;-70
2022/01/17 19:43:57;;;;;;;2.13;2.03;;;2.70;99.90;;;;;;5073495;28;20238;-70
2022/01/17 19:46:25;;;;;;;1.77;1.67;;;2.60;99.90;;;;;;5073444;28;20206;-70
2022/01/17 19:48:55;;;;;;;1.55;1.55;;;2.70;99.90;;;;;;5073147;28;20204;-70
2022/01/17 19:51:24;;;;;;;1.67;1.67;;;2.60;99.90;;;;;;5073250;28;20227;-70
2022/01/17 19:53:51;;;;;;;1.77;1.77;;;2.60;99.90;;;;;;5073335;28;20211;-70
2022/01/17 19:56:19;;;;;;;1.65;1.65;;;2.60;99.90;;;;;;5073097;28;20659;-70
2022/01/17 19:58:46;;;;;;;1.77;1.67;;;2.60;99.90;;;;;;5073187;28;20206;-71
2022/01/17 20:01:14;;;;;;;1.58;1.58;;;2.60;99.90;;;;;;5072801;28;20219;-70
2022/01/17 20:03:42;;;;;;;1.52;1.52;;;2.60;99.90;;;;;;5073114;28;20200;-70
2022/01/17 20:06:09;;;;;;;1.40;1.40;;;2.50;99.90;;;;;;5072786;28;20709;-71
2022/01/17 20:08:36;;;;;;;1.30;1.30;;;2.50;99.90;;;;;;5072888;28;20295;-71
2022/01/17 20:11:03;;;;;;;1.60;1.60;;;2.50;99.90;;;;;;5072759;28;20687;-70
2022/01/17 20:13:31;;;;;;;1.48;1.48;;;2.50;99.90;;;;;;5072870;28;20588;-70
2022/01/17 20:15:59;;;;;;;1.40;1.40;;;2.50;99.90;;;;;;5073285;28;20290;-70
2022/01/17 20:18:27;;;;;;;1.13;1.13;;;2.50;99.90;;;;;;5073145;28;20204;-70
2022/01/17 20:20:54;;;;;;;1.30;1.30;;;2.60;99.90;;;;;;5072938;28;20227;-70
2022/01/17 20:23:21;;;;;;;2.40;2.30;;;2.50;99.90;;;;;;5072796;28;20583;-70
2022/01/17 20:25:48;;;;;;;2.30;2.20;;;2.50;99.90;;;;;;5072787;28;20291;-70
2022/01/17 20:28:15;;;;;;;2.20;2.10;;;2.50;99.90;;;;;;5073051;28;20203;-70
2022/01/17 20:30:43;;;;;;;2.00;1.90;;;2.50;99.90;;;;;;5072770;28;20196;-70
2022/01/17 20:33:10;;;;;;;1.83;1.73;;;2.50;99.90;;;;;;5073060;28;20223;-70
2022/01/17 20:35:40;;;;;;;2.00;1.90;;;2.40;99.90;;;;;;5072688;28;20200;-70
